OOMS/MCT METAR and TAF weather

Enter ICAO airport designator
Station Type Date Time Source
OOMS METAR 2018/12/13 21:50 UTC NOAA

OOMS 132150Z 28002KT CAVOK 21/16 Q1019 NOSIG


Station Type Date Time Source
OOMS Decoded METAR 2018/12/13 21:50 UTC NOAA

Seeb, International Airport, Oman (OOMS) 23-35N 058-17E 17M
Dec 13, 2018 - 04:50 PM EST / 2018.12.13 2150 UTC
Wind: from the W (280 degrees) at 2 MPH (2 KT):0
Visibility: greater than 7 mile(s):0
Temperature: 69 F (21 C)
Dew Point: 60 F (16 C)
Relative Humidity: 73%
Pressure (altimeter): 30.09 in. Hg (1019 hPa)
ob: OOMS 132150Z 28002KT CAVOK 21/16 Q1019 NOSIG
cycle: 22

Station Type Date Time Source
OOMS TAF 2018/12/13 18:03 UTC NOAA

TAF OOMS 131700Z 1318/1424 VRB02KT 8000 NSC
BECMG 1319/1321 21010KT PROB30
TEMPO 1319/1402 BKN040
BECMG 1406/1408 06012KT PROB30
TEMPO 1406/1415 -RA BKN030
BECMG 1417/1419 12007KT


Example: see airport list